sensor_id;sensor_type;location;lat;lon;timestamp;pressure;altitude;pressure_sealevel;temperature
70050;BMP180;57391;51.306;22.680;2022-12-19T00:01:31;101847.60;;;-7.02
70050;BMP180;57391;51.306;22.680;2022-12-19T00:04:01;101841.80;;;-7.20
70050;BMP180;57391;51.306;22.680;2022-12-19T00:06:29;101848.00;;;-7.32
70050;BMP180;57391;51.306;22.680;2022-12-19T00:08:58;101838.20;;;-7.50
70050;BMP180;57391;51.306;22.680;2022-12-19T00:11:27;101831.00;;;-7.80
70050;BMP180;57391;51.306;22.680;2022-12-19T00:13:54;101829.40;;;-7.90
70050;BMP180;57391;51.306;22.680;2022-12-19T00:16:27;101824.20;;;-7.90
70050;BMP180;57391;51.306;22.680;2022-12-19T00:18:56;101828.60;;;-7.90
70050;BMP180;57391;51.306;22.680;2022-12-19T00:21:26;101829.60;;;-7.90
70050;BMP180;57391;51.306;22.680;2022-12-19T00:23:54;101831.80;;;-7.90
70050;BMP180;57391;51.306;22.680;2022-12-19T00:26:27;101832.00;;;-7.82
70050;BMP180;57391;51.306;22.680;2022-12-19T00:29:03;101832.20;;;-7.82
70050;BMP180;57391;51.306;22.680;2022-12-19T00:31:33;101834.00;;;-7.80
70050;BMP180;57391;51.306;22.680;2022-12-19T00:34:00;101827.40;;;-7.88
70050;BMP180;57391;51.306;22.680;2022-12-19T00:36:31;101835.20;;;-7.90
70050;BMP180;57391;51.306;22.680;2022-12-19T00:38:59;101830.00;;;-7.90
70050;BMP180;57391;51.306;22.680;2022-12-19T00:41:30;101827.80;;;-7.94
70050;BMP180;57391;51.306;22.680;2022-12-19T00:44:04;101825.40;;;-8.10
70050;BMP180;57391;51.306;22.680;2022-12-19T00:46:32;101829.60;;;-8.20
70050;BMP180;57391;51.306;22.680;2022-12-19T00:49:00;101829.00;;;-8.32
70050;BMP180;57391;51.306;22.680;2022-12-19T00:51:33;101836.80;;;-8.40
70050;BMP180;57391;51.306;22.680;2022-12-19T00:54:01;101827.80;;;-8.50
70050;BMP180;57391;51.306;22.680;2022-12-19T00:56:31;101828.00;;;-8.60
70050;BMP180;57391;51.306;22.680;2022-12-19T00:58:58;101829.00;;;-8.70
70050;BMP180;57391;51.306;22.680;2022-12-19T01:01:31;101832.00;;;-8.70
70050;BMP180;57391;51.306;22.680;2022-12-19T01:04:01;101831.40;;;-8.80
70050;BMP180;57391;51.306;22.680;2022-12-19T01:06:29;101833.80;;;-8.80
70050;BMP180;57391;51.306;22.680;2022-12-19T01:08:55;101828.20;;;-8.80
70050;BMP180;57391;51.306;22.680;2022-12-19T01:11:23;101829.40;;;-8.80
70050;BMP180;57391;51.306;22.680;2022-12-19T01:14:13;101828.00;;;-8.74
70050;BMP180;57391;51.306;22.680;2022-12-19T01:16:40;101830.00;;;-8.66
70050;BMP180;57391;51.306;22.680;2022-12-19T01:19:07;101831.80;;;-8.60
70050;BMP180;57391;51.306;22.680;2022-12-19T01:21:33;101830.20;;;-8.50
70050;BMP180;57391;51.306;22.680;2022-12-19T01:24:01;101823.60;;;-8.40
70050;BMP180;57391;51.306;22.680;2022-12-19T01:26:28;101822.40;;;-8.30
70050;BMP180;57391;51.306;22.680;2022-12-19T01:28:54;101819.20;;;-8.20
70050;BMP180;57391;51.306;22.680;2022-12-19T01:31:21;101827.20;;;-8.10
70050;BMP180;57391;51.306;22.680;2022-12-19T01:33:48;101827.00;;;-8.00
70050;BMP180;57391;51.306;22.680;2022-12-19T01:36:15;101826.20;;;-7.90
70050;BMP180;57391;51.306;22.680;2022-12-19T01:38:41;101830.80;;;-7.80
70050;BMP180;57391;51.306;22.680;2022-12-19T01:41:10;101828.20;;;-7.70
70050;BMP180;57391;51.306;22.680;2022-12-19T01:44:00;101826.60;;;-7.66
70050;BMP180;57391;51.306;22.680;2022-12-19T01:46:35;101817.80;;;-7.60
70050;BMP180;57391;51.306;22.680;2022-12-19T01:49:05;101804.60;;;-7.50
70050;BMP180;57391;51.306;22.680;2022-12-19T01:51:40;101808.00;;;-7.44
70050;BMP180;57391;51.306;22.680;2022-12-19T01:54:15;101812.00;;;-7.40
70050;BMP180;57391;51.306;22.680;2022-12-19T01:56:49;101810.40;;;-7.40
70050;BMP180;57391;51.306;22.680;2022-12-19T01:59:26;101806.60;;;-7.36
70050;BMP180;57391;51.306;22.680;2022-12-19T02:02:00;101805.00;;;-7.30
70050;BMP180;57391;51.306;22.680;2022-12-19T02:04:29;101818.00;;;-7.30
70050;BMP180;57391;51.306;22.680;2022-12-19T02:06:58;101823.20;;;-7.30
70050;BMP180;57391;51.306;22.680;2022-12-19T02:09:25;101821.60;;;-7.30
70050;BMP180;57391;51.306;22.680;2022-12-19T02:11:53;101823.40;;;-7.30
70050;BMP180;57391;51.306;22.680;2022-12-19T02:14:20;101822.60;;;-7.24
70050;BMP180;57391;51.306;22.680;2022-12-19T02:28:17;101809.40;;;-7.24
70050;BMP180;57391;51.306;22.680;2022-12-19T02:33:43;101803.40;;;-7.30
70050;BMP180;57391;51.306;22.680;2022-12-19T02:36:25;101801.60;;;-7.30
70050;BMP180;57391;51.306;22.680;2022-12-19T02:39:07;101804.20;;;-7.30
70050;BMP180;57391;51.306;22.680;2022-12-19T02:41:50;101797.40;;;-7.28
70050;BMP180;57391;51.306;22.680;2022-12-19T02:44:30;101800.20;;;-7.24
70050;BMP180;57391;51.306;22.680;2022-12-19T02:47:02;101802.00;;;-7.20
70050;BMP180;57391;51.306;22.680;2022-12-19T02:49:36;101803.00;;;-7.22
70050;BMP180;57391;51.306;22.680;2022-12-19T02:55:05;101792.00;;;-7.20
70050;BMP180;57391;51.306;22.680;2022-12-19T02:58:23;101797.40;;;-7.20
70050;BMP180;57391;51.306;22.680;2022-12-19T03:04:47;101793.00;;;-7.10
70050;BMP180;57391;51.306;22.680;2022-12-19T03:07:54;101795.60;;;-7.10
70050;BMP180;57391;51.306;22.680;2022-12-19T03:15:58;101803.60;;;-7.10
70050;BMP180;57391;51.306;22.680;2022-12-19T03:18:26;101808.40;;;-7.10
70050;BMP180;57391;51.306;22.680;2022-12-19T03:21:05;101814.80;;;-7.10
70050;BMP180;57391;51.306;22.680;2022-12-19T03:23:34;101825.40;;;-7.10
70050;BMP180;57391;51.306;22.680;2022-12-19T03:26:10;101818.40;;;-7.04
70050;BMP180;57391;51.306;22.680;2022-12-19T03:28:48;101823.00;;;-7.00
70050;BMP180;57391;51.306;22.680;2022-12-19T03:31:20;101815.20;;;-7.00
70050;BMP180;57391;51.306;22.680;2022-12-19T03:33:54;101816.60;;;-7.00
70050;BMP180;57391;51.306;22.680;2022-12-19T03:36:28;101816.20;;;-7.00
70050;BMP180;57391;51.306;22.680;2022-12-19T03:38:56;101817.40;;;-7.00
70050;BMP180;57391;51.306;22.680;2022-12-19T03:41:25;101810.00;;;-7.10
70050;BMP180;57391;51.306;22.680;2022-12-19T03:44:13;101806.80;;;-7.20
70050;BMP180;57391;51.306;22.680;2022-12-19T03:46:47;101802.60;;;-7.20
70050;BMP180;57391;51.306;22.680;2022-12-19T03:49:16;101805.00;;;-7.30
70050;BMP180;57391;51.306;22.680;2022-12-19T03:52:05;101800.20;;;-7.34
70050;BMP180;57391;51.306;22.680;2022-12-19T03:54:40;101804.20;;;-7.40
70050;BMP180;57391;51.306;22.680;2022-12-19T03:57:24;101804.20;;;-7.50
70050;BMP180;57391;51.306;22.680;2022-12-19T04:00:01;101806.40;;;-7.52
70050;BMP180;57391;51.306;22.680;2022-12-19T04:02:32;101800.20;;;-7.60
70050;BMP180;57391;51.306;22.680;2022-12-19T04:05:06;101794.00;;;-7.60
70050;BMP180;57391;51.306;22.680;2022-12-19T04:07:35;101800.80;;;-7.60
70050;BMP180;57391;51.306;22.680;2022-12-19T04:10:11;101800.20;;;-7.58
70050;BMP180;57391;51.306;22.680;2022-12-19T04:13:06;101800.00;;;-7.60
70050;BMP180;57391;51.306;22.680;2022-12-19T04:15:50;101792.20;;;-7.60
70050;BMP180;57391;51.306;22.680;2022-12-19T04:18:19;101799.40;;;-7.60
70050;BMP180;57391;51.306;22.680;2022-12-19T04:20:58;101803.00;;;-7.60
70050;BMP180;57391;51.306;22.680;2022-12-19T04:24:03;101801.40;;;-7.50
70050;BMP180;57391;51.306;22.680;2022-12-19T04:26:35;101792.40;;;-7.60
70050;BMP180;57391;51.306;22.680;2022-12-19T04:29:05;101790.40;;;-7.60
70050;BMP180;57391;51.306;22.680;2022-12-19T04:31:32;101788.40;;;-7.70
70050;BMP180;57391;51.306;22.680;2022-12-19T04:34:01;101782.20;;;-7.78
70050;BMP180;57391;51.306;22.680;2022-12-19T04:36:27;101772.00;;;-7.86
70050;BMP180;57391;51.306;22.680;2022-12-19T04:38:54;101776.60;;;-8.00
70050;BMP180;57391;51.306;22.680;2022-12-19T04:41:20;101770.20;;;-8.18
70050;BMP180;57391;51.306;22.680;2022-12-19T04:43:46;101761.20;;;-8.40
70050;BMP180;57391;51.306;22.680;2022-12-19T04:46:12;101764.60;;;-8.56
70050;BMP180;57391;51.306;22.680;2022-12-19T04:48:39;101757.80;;;-8.70
70050;BMP180;57391;51.306;22.680;2022-12-19T04:51:05;101758.20;;;-8.90
70050;BMP180;57391;51.306;22.680;2022-12-19T04:53:32;101760.80;;;-8.90
70050;BMP180;57391;51.306;22.680;2022-12-19T04:56:04;101763.60;;;-9.00
70050;BMP180;57391;51.306;22.680;2022-12-19T04:58:32;101761.60;;;-9.10
70050;BMP180;57391;51.306;22.680;2022-12-19T05:01:01;101762.40;;;-9.20
70050;BMP180;57391;51.306;22.680;2022-12-19T05:03:27;101755.20;;;-9.30
70050;BMP180;57391;51.306;22.680;2022-12-19T05:06:03;101748.00;;;-9.42
70050;BMP180;57391;51.306;22.680;2022-12-19T05:08:30;101745.80;;;-9.50
70050;BMP180;57391;51.306;22.680;2022-12-19T05:11:01;101746.60;;;-9.60
70050;BMP180;57391;51.306;22.680;2022-12-19T05:13:28;101749.20;;;-9.70
70050;BMP180;57391;51.306;22.680;2022-12-19T05:16:02;101742.60;;;-9.70
70050;BMP180;57391;51.306;22.680;2022-12-19T05:18:30;101744.60;;;-9.72
70050;BMP180;57391;51.306;22.680;2022-12-19T05:20:56;101742.40;;;-9.80
70050;BMP180;57391;51.306;22.680;2022-12-19T05:23:23;101744.20;;;-9.80
70050;BMP180;57391;51.306;22.680;2022-12-19T05:25:50;101749.00;;;-9.80
70050;BMP180;57391;51.306;22.680;2022-12-19T05:28:17;101748.40;;;-9.90
70050;BMP180;57391;51.306;22.680;2022-12-19T05:30:45;101742.20;;;-9.90
70050;BMP180;57391;51.306;22.680;2022-12-19T05:33:11;101742.60;;;-10.00
70050;BMP180;57391;51.306;22.680;2022-12-19T05:35:37;101741.60;;;-10.10
70050;BMP180;57391;51.306;22.680;2022-12-19T05:38:05;101736.00;;;-10.10
70050;BMP180;57391;51.306;22.680;2022-12-19T05:40:32;101735.60;;;-10.10
70050;BMP180;57391;51.306;22.680;2022-12-19T05:42:58;101733.60;;;-10.20
70050;BMP180;57391;51.306;22.680;2022-12-19T05:45:25;101726.40;;;-10.28
70050;BMP180;57391;51.306;22.680;2022-12-19T05:47:51;101716.60;;;-10.30
70050;BMP180;57391;51.306;22.680;2022-12-19T05:50:18;101717.20;;;-10.40
70050;BMP180;57391;51.306;22.680;2022-12-19T05:52:50;101717.80;;;-10.50
70050;BMP180;57391;51.306;22.680;2022-12-19T05:55:16;101716.00;;;-10.60
70050;BMP180;57391;51.306;22.680;2022-12-19T05:57:43;101715.40;;;-10.70
70050;BMP180;57391;51.306;22.680;2022-12-19T06:00:10;101717.60;;;-10.80
70050;BMP180;57391;51.306;22.680;2022-12-19T06:02:40;101718.40;;;-11.00
70050;BMP180;57391;51.306;22.680;2022-12-19T06:05:07;101724.00;;;-11.10
70050;BMP180;57391;51.306;22.680;2022-12-19T06:07:34;101714.40;;;-11.20
70050;BMP180;57391;51.306;22.680;2022-12-19T06:10:00;101710.00;;;-11.30
70050;BMP180;57391;51.306;22.680;2022-12-19T06:12:26;101715.80;;;-11.40
70050;BMP180;57391;51.306;22.680;2022-12-19T06:14:52;101721.60;;;-11.50
70050;BMP180;57391;51.306;22.680;2022-12-19T06:17:18;101718.40;;;-11.60
70050;BMP180;57391;51.306;22.680;2022-12-19T06:19:44;101711.60;;;-11.70
70050;BMP180;57391;51.306;22.680;2022-12-19T06:22:12;101709.80;;;-11.80
70050;BMP180;57391;51.306;22.680;2022-12-19T06:24:38;101713.60;;;-11.90
70050;BMP180;57391;51.306;22.680;2022-12-19T06:27:04;101711.00;;;-11.96
70050;BMP180;57391;51.306;22.680;2022-12-19T06:29:30;101707.00;;;-12.00
70050;BMP180;57391;51.306;22.680;2022-12-19T06:31:57;101705.40;;;-12.10
70050;BMP180;57391;51.306;22.680;2022-12-19T06:34:24;101698.40;;;-12.20
70050;BMP180;57391;51.306;22.680;2022-12-19T06:36:53;101692.60;;;-12.24
70050;BMP180;57391;51.306;22.680;2022-12-19T06:39:20;101694.40;;;-12.30
70050;BMP180;57391;51.306;22.680;2022-12-19T06:41:48;101696.80;;;-12.38
70050;BMP180;57391;51.306;22.680;2022-12-19T06:44:33;101700.00;;;-12.40
70050;BMP180;57391;51.306;22.680;2022-12-19T06:47:00;101692.80;;;-12.46
70050;BMP180;57391;51.306;22.680;2022-12-19T06:49:26;101695.40;;;-12.50
70050;BMP180;57391;51.306;22.680;2022-12-19T06:51:52;101690.80;;;-12.60
70050;BMP180;57391;51.306;22.680;2022-12-19T06:54:19;101696.80;;;-12.52
70050;BMP180;57391;51.306;22.680;2022-12-19T06:56:45;101694.00;;;-12.50
70050;BMP180;57391;51.306;22.680;2022-12-19T06:59:14;101693.80;;;-12.50
70050;BMP180;57391;51.306;22.680;2022-12-19T07:02:10;101694.20;;;-12.40
70050;BMP180;57391;51.306;22.680;2022-12-19T07:04:54;101699.60;;;-12.30
70050;BMP180;57391;51.306;22.680;2022-12-19T07:07:22;101705.80;;;-12.30
70050;BMP180;57391;51.306;22.680;2022-12-19T07:09:48;101706.60;;;-12.20
70050;BMP180;57391;51.306;22.680;2022-12-19T07:12:15;101709.40;;;-12.00
70050;BMP180;57391;51.306;22.680;2022-12-19T07:14:41;101700.00;;;-11.78
70050;BMP180;57391;51.306;22.680;2022-12-19T07:17:07;101701.80;;;-11.50
70050;BMP180;57391;51.306;22.680;2022-12-19T07:19:34;101694.40;;;-11.20
70050;BMP180;57391;51.306;22.680;2022-12-19T07:22:02;101695.60;;;-11.00
70050;BMP180;57391;51.306;22.680;2022-12-19T07:24:30;101694.40;;;-10.80
70050;BMP180;57391;51.306;22.680;2022-12-19T07:26:59;101695.00;;;-10.60
70050;BMP180;57391;51.306;22.680;2022-12-19T07:29:25;101699.80;;;-10.50
70050;BMP180;57391;51.306;22.680;2022-12-19T07:31:51;101690.80;;;-10.40
70050;BMP180;57391;51.306;22.680;2022-12-19T07:34:18;101694.20;;;-10.32
70050;BMP180;57391;51.306;22.680;2022-12-19T07:36:45;101694.40;;;-10.30
70050;BMP180;57391;51.306;22.680;2022-12-19T07:39:11;101695.40;;;-10.30
70050;BMP180;57391;51.306;22.680;2022-12-19T07:41:37;101700.00;;;-10.20
70050;BMP180;57391;51.306;22.680;2022-12-19T07:44:06;101697.00;;;-10.20
70050;BMP180;57391;51.306;22.680;2022-12-19T07:46:33;101689.20;;;-10.26
70050;BMP180;57391;51.306;22.680;2022-12-19T07:48:59;101690.60;;;-10.28
70050;BMP180;57391;51.306;22.680;2022-12-19T07:51:25;101691.40;;;-10.22
70050;BMP180;57391;51.306;22.680;2022-12-19T07:53:52;101687.40;;;-10.20
70050;BMP180;57391;51.306;22.680;2022-12-19T07:56:19;101686.60;;;-10.20
70050;BMP180;57391;51.306;22.680;2022-12-19T07:58:45;101688.80;;;-10.10
70050;BMP180;57391;51.306;22.680;2022-12-19T08:01:11;101682.20;;;-10.00
70050;BMP180;57391;51.306;22.680;2022-12-19T08:03:38;101679.40;;;-9.90
70050;BMP180;57391;51.306;22.680;2022-12-19T08:06:07;101685.00;;;-9.70
70050;BMP180;57391;51.306;22.680;2022-12-19T08:08:34;101682.60;;;-9.58
70050;BMP180;57391;51.306;22.680;2022-12-19T08:11:17;101676.20;;;-9.34
70050;BMP180;57391;51.306;22.680;2022-12-19T08:13:45;101672.60;;;-9.10
70050;BMP180;57391;51.306;22.680;2022-12-19T08:16:14;101678.20;;;-8.90
70050;BMP180;57391;51.306;22.680;2022-12-19T08:18:40;101670.20;;;-8.80
70050;BMP180;57391;51.306;22.680;2022-12-19T08:21:08;101672.60;;;-8.60
70050;BMP180;57391;51.306;22.680;2022-12-19T08:23:35;101680.80;;;-8.54
70050;BMP180;57391;51.306;22.680;2022-12-19T08:26:07;101682.60;;;-8.46
70050;BMP180;57391;51.306;22.680;2022-12-19T08:28:35;101686.20;;;-8.40
70050;BMP180;57391;51.306;22.680;2022-12-19T08:31:11;101679.00;;;-8.34
70050;BMP180;57391;51.306;22.680;2022-12-19T08:33:38;101677.80;;;-8.20
70050;BMP180;57391;51.306;22.680;2022-12-19T08:36:14;101681.20;;;-8.10
70050;BMP180;57391;51.306;22.680;2022-12-19T08:38:40;101683.00;;;-8.00
70050;BMP180;57391;51.306;22.680;2022-12-19T08:41:08;101675.60;;;-7.90
70050;BMP180;57391;51.306;22.680;2022-12-19T08:43:35;101668.00;;;-7.80
70050;BMP180;57391;51.306;22.680;2022-12-19T08:46:01;101675.40;;;-7.60
70050;BMP180;57391;51.306;22.680;2022-12-19T08:48:30;101674.60;;;-7.54
70050;BMP180;57391;51.306;22.680;2022-12-19T08:51:01;101671.80;;;-7.50
70050;BMP180;57391;51.306;22.680;2022-12-19T08:53:30;101671.60;;;-7.50
70050;BMP180;57391;51.306;22.680;2022-12-19T08:56:20;101674.60;;;-7.40
70050;BMP180;57391;51.306;22.680;2022-12-19T08:58:47;101667.60;;;-7.40
70050;BMP180;57391;51.306;22.680;2022-12-19T09:01:19;101669.60;;;-7.30
70050;BMP180;57391;51.306;22.680;2022-12-19T09:03:49;101663.80;;;-7.30
70050;BMP180;57391;51.306;22.680;2022-12-19T09:06:16;101666.80;;;-7.30
70050;BMP180;57391;51.306;22.680;2022-12-19T09:08:42;101660.60;;;-7.22
70050;BMP180;57391;51.306;22.680;2022-12-19T09:11:14;101658.00;;;-7.20
70050;BMP180;57391;51.306;22.680;2022-12-19T09:13:42;101659.00;;;-7.12
70050;BMP180;57391;51.306;22.680;2022-12-19T09:16:22;101660.80;;;-7.00
70050;BMP180;57391;51.306;22.680;2022-12-19T09:18:52;101658.60;;;-6.90
70050;BMP180;57391;51.306;22.680;2022-12-19T09:21:23;101653.40;;;-6.84
70050;BMP180;57391;51.306;22.680;2022-12-19T09:23:53;101653.40;;;-6.80
70050;BMP180;57391;51.306;22.680;2022-12-19T09:26:23;101667.80;;;-6.70
70050;BMP180;57391;51.306;22.680;2022-12-19T09:28:51;101657.60;;;-6.66
70050;BMP180;57391;51.306;22.680;2022-12-19T09:31:22;101655.60;;;-6.50
70050;BMP180;57391;51.306;22.680;2022-12-19T09:33:49;101659.00;;;-6.20
70050;BMP180;57391;51.306;22.680;2022-12-19T09:36:21;101663.60;;;-5.82
70050;BMP180;57391;51.306;22.680;2022-12-19T09:38:51;101668.40;;;-5.50
70050;BMP180;57391;51.306;22.680;2022-12-19T09:47:17;101638.80;;;-4.90
70050;BMP180;57391;51.306;22.680;2022-12-19T09:49:47;101627.40;;;-4.80
70050;BMP180;57391;51.306;22.680;2022-12-19T09:52:36;101614.00;;;-4.80
70050;BMP180;57391;51.306;22.680;2022-12-19T09:55:37;101615.40;;;-4.68
70050;BMP180;57391;51.306;22.680;2022-12-19T09:58:13;101601.40;;;-4.58
70050;BMP180;57391;51.306;22.680;2022-12-19T10:00:54;101602.20;;;-4.50
70050;BMP180;57391;51.306;22.680;2022-12-19T10:03:40;101602.20;;;-4.40
70050;BMP180;57391;51.306;22.680;2022-12-19T10:06:22;101593.40;;;-4.30
70050;BMP180;57391;51.306;22.680;2022-12-19T10:08:51;101585.80;;;-4.20
70050;BMP180;57391;51.306;22.680;2022-12-19T10:22:39;101587.40;;;-3.80
70050;BMP180;57391;51.306;22.680;2022-12-19T10:28:30;101574.20;;;-3.80
70050;BMP180;57391;51.306;22.680;2022-12-19T10:34:16;101557.60;;;-3.90
70050;BMP180;57391;51.306;22.680;2022-12-19T10:36:50;101558.00;;;-3.90
70050;BMP180;57391;51.306;22.680;2022-12-19T10:39:55;101545.80;;;-4.00
70050;BMP180;57391;51.306;22.680;2022-12-19T10:42:40;101544.40;;;-4.00
70050;BMP180;57391;51.306;22.680;2022-12-19T10:45:19;101542.40;;;-4.10
70050;BMP180;57391;51.306;22.680;2022-12-19T10:47:54;101546.80;;;-4.20
70050;BMP180;57391;51.306;22.680;2022-12-19T10:50:28;101542.80;;;-4.30
70050;BMP180;57391;51.306;22.680;2022-12-19T10:55:52;101532.60;;;-4.20
70050;BMP180;57391;51.306;22.680;2022-12-19T10:58:32;101532.40;;;-4.28
70050;BMP180;57391;51.306;22.680;2022-12-19T11:01:33;101519.40;;;-4.30
70050;BMP180;57391;51.306;22.680;2022-12-19T11:09:38;101495.00;;;-4.30
70050;BMP180;57391;51.306;22.680;2022-12-19T11:14:49;101487.40;;;-4.50
70050;BMP180;57391;51.306;22.680;2022-12-19T11:17:36;101485.40;;;-4.82
70050;BMP180;57391;51.306;22.680;2022-12-19T11:20:18;101478.40;;;-5.14
70050;BMP180;57391;51.306;22.680;2022-12-19T11:23:11;101476.80;;;-5.30
70050;BMP180;57391;51.306;22.680;2022-12-19T11:25:42;101473.20;;;-5.26
70050;BMP180;57391;51.306;22.680;2022-12-19T11:28:38;101472.60;;;-5.30
70050;BMP180;57391;51.306;22.680;2022-12-19T11:31:22;101465.80;;;-5.20
70050;BMP180;57391;51.306;22.680;2022-12-19T11:34:03;101463.60;;;-5.20
70050;BMP180;57391;51.306;22.680;2022-12-19T11:36:39;101459.20;;;-5.30
70050;BMP180;57391;51.306;22.680;2022-12-19T11:39:25;101454.60;;;-5.40
70050;BMP180;57391;51.306;22.680;2022-12-19T11:42:11;101455.00;;;-5.40
70050;BMP180;57391;51.306;22.680;2022-12-19T11:44:57;101443.60;;;-5.30
70050;BMP180;57391;51.306;22.680;2022-12-19T11:50:26;101425.60;;;-5.20
70050;BMP180;57391;51.306;22.680;2022-12-19T11:55:59;101413.40;;;-5.30
70050;BMP180;57391;51.306;22.680;2022-12-19T11:58:27;101412.60;;;-5.30
70050;BMP180;57391;51.306;22.680;2022-12-19T12:06:16;101392.40;;;-5.50
70050;BMP180;57391;51.306;22.680;2022-12-19T12:17:04;101383.40;;;-5.60
70050;BMP180;57391;51.306;22.680;2022-12-19T12:19:47;101368.60;;;-5.70
70050;BMP180;57391;51.306;22.680;2022-12-19T12:36:28;101356.60;;;-5.70
70050;BMP180;57391;51.306;22.680;2022-12-19T12:39:18;101357.40;;;-5.70
70050;BMP180;57391;51.306;22.680;2022-12-19T12:44:38;101363.20;;;-5.60
70050;BMP180;57391;51.306;22.680;2022-12-19T12:47:28;101367.60;;;-5.36
70050;BMP180;57391;51.306;22.680;2022-12-19T12:50:12;101364.80;;;-5.18
70050;BMP180;57391;51.306;22.680;2022-12-19T12:52:43;101357.80;;;-5.02
70050;BMP180;57391;51.306;22.680;2022-12-19T12:55:30;101354.20;;;-4.90
70050;BMP180;57391;51.306;22.680;2022-12-19T12:57:58;101349.60;;;-4.74
70050;BMP180;57391;51.306;22.680;2022-12-19T13:00:32;101356.00;;;-4.50
70050;BMP180;57391;51.306;22.680;2022-12-19T13:03:15;101354.80;;;-4.30
70050;BMP180;57391;51.306;22.680;2022-12-19T13:08:38;101340.60;;;-4.00
70050;BMP180;57391;51.306;22.680;2022-12-19T13:13:58;101340.20;;;-3.94
70050;BMP180;57391;51.306;22.680;2022-12-19T13:19:25;101338.60;;;-4.10
70050;BMP180;57391;51.306;22.680;2022-12-19T13:24:53;101327.60;;;-4.20
70050;BMP180;57391;51.306;22.680;2022-12-19T13:32:34;101320.60;;;-4.30
70050;BMP180;57391;51.306;22.680;2022-12-19T13:38:14;101317.40;;;-4.60
70050;BMP180;57391;51.306;22.680;2022-12-19T13:43:21;101312.40;;;-5.00
70050;BMP180;57391;51.306;22.680;2022-12-19T13:49:05;101286.80;;;-5.42
70050;BMP180;57391;51.306;22.680;2022-12-19T13:51:52;101280.80;;;-5.62
70050;BMP180;57391;51.306;22.680;2022-12-19T13:54:23;101280.00;;;-5.90
70050;BMP180;57391;51.306;22.680;2022-12-19T13:56:52;101269.40;;;-6.10
70050;BMP180;57391;51.306;22.680;2022-12-19T13:59:23;101272.20;;;-6.32
70050;BMP180;57391;51.306;22.680;2022-12-19T14:01:52;101265.00;;;-6.52
70050;BMP180;57391;51.306;22.680;2022-12-19T14:04:29;101263.20;;;-6.72
70050;BMP180;57391;51.306;22.680;2022-12-19T14:07:04;101263.60;;;-6.90
70050;BMP180;57391;51.306;22.680;2022-12-19T14:09:37;101264.80;;;-6.98
70050;BMP180;57391;51.306;22.680;2022-12-19T14:12:11;101267.40;;;-7.00
70050;BMP180;57391;51.306;22.680;2022-12-19T14:14:59;101267.60;;;-7.02
70050;BMP180;57391;51.306;22.680;2022-12-19T14:17:47;101265.40;;;-7.10
70050;BMP180;57391;51.306;22.680;2022-12-19T14:20:22;101265.20;;;-7.00
70050;BMP180;57391;51.306;22.680;2022-12-19T14:22:56;101264.00;;;-7.00
70050;BMP180;57391;51.306;22.680;2022-12-19T14:25:33;101269.00;;;-6.90
70050;BMP180;57391;51.306;22.680;2022-12-19T14:28:10;101273.80;;;-6.80
70050;BMP180;57391;51.306;22.680;2022-12-19T14:30:42;101262.00;;;-6.80
70050;BMP180;57391;51.306;22.680;2022-12-19T14:33:26;101264.00;;;-6.78
70050;BMP180;57391;51.306;22.680;2022-12-19T14:35:56;101281.80;;;-6.80
70050;BMP180;57391;51.306;22.680;2022-12-19T14:38:28;101283.40;;;-6.80
70050;BMP180;57391;51.306;22.680;2022-12-19T14:41:00;101278.40;;;-6.72
70050;BMP180;57391;51.306;22.680;2022-12-19T14:43:30;101272.00;;;-6.80
70050;BMP180;57391;51.306;22.680;2022-12-19T14:48:56;101253.40;;;-6.90
70050;BMP180;57391;51.306;22.680;2022-12-19T14:51:38;101236.60;;;-6.98
70050;BMP180;57391;51.306;22.680;2022-12-19T14:56:51;101231.20;;;-7.00
70050;BMP180;57391;51.306;22.680;2022-12-19T14:59:44;101225.40;;;-7.10
70050;BMP180;57391;51.306;22.680;2022-12-19T15:02:26;101227.20;;;-7.20
70050;BMP180;57391;51.306;22.680;2022-12-19T15:05:09;101228.60;;;-7.30
70050;BMP180;57391;51.306;22.680;2022-12-19T15:07:42;101220.40;;;-7.32
70050;BMP180;57391;51.306;22.680;2022-12-19T15:15:58;101208.00;;;-7.40
70050;BMP180;57391;51.306;22.680;2022-12-19T15:18:39;101197.60;;;-7.40
70050;BMP180;57391;51.306;22.680;2022-12-19T15:21:11;101197.00;;;-7.40
70050;BMP180;57391;51.306;22.680;2022-12-19T15:23:39;101192.00;;;-7.50
70050;BMP180;57391;51.306;22.680;2022-12-19T15:26:33;101180.00;;;-7.56
70050;BMP180;57391;51.306;22.680;2022-12-19T15:28:58;101183.80;;;-7.66
70050;BMP180;57391;51.306;22.680;2022-12-19T15:34:19;101173.60;;;-7.70
70050;BMP180;57391;51.306;22.680;2022-12-19T15:36:51;101174.40;;;-7.60
70050;BMP180;57391;51.306;22.680;2022-12-19T15:39:20;101166.60;;;-7.60
70050;BMP180;57391;51.306;22.680;2022-12-19T15:41:51;101164.80;;;-7.60
70050;BMP180;57391;51.306;22.680;2022-12-19T15:44:34;101156.20;;;-7.60
70050;BMP180;57391;51.306;22.680;2022-12-19T15:47:06;101156.00;;;-7.60
70050;BMP180;57391;51.306;22.680;2022-12-19T15:49:33;101155.40;;;-7.60
70050;BMP180;57391;51.306;22.680;2022-12-19T15:52:00;101164.60;;;-7.60
70050;BMP180;57391;51.306;22.680;2022-12-19T15:54:28;101168.80;;;-7.70
70050;BMP180;57391;51.306;22.680;2022-12-19T15:56:55;101155.60;;;-7.60
70050;BMP180;57391;51.306;22.680;2022-12-19T15:59:31;101157.20;;;-7.60
70050;BMP180;57391;51.306;22.680;2022-12-19T16:01:59;101150.80;;;-7.50
70050;BMP180;57391;51.306;22.680;2022-12-19T16:04:27;101146.20;;;-7.40
70050;BMP180;57391;51.306;22.680;2022-12-19T16:06:54;101149.20;;;-7.36
70050;BMP180;57391;51.306;22.680;2022-12-19T16:09:24;101144.40;;;-7.28
70050;BMP180;57391;51.306;22.680;2022-12-19T16:11:52;101130.40;;;-7.10
70050;BMP180;57391;51.306;22.680;2022-12-19T16:14:21;101134.40;;;-7.04
70050;BMP180;57391;51.306;22.680;2022-12-19T16:16:54;101122.00;;;-7.00
70050;BMP180;57391;51.306;22.680;2022-12-19T16:19:27;101118.80;;;-6.98
70050;BMP180;57391;51.306;22.680;2022-12-19T16:21:55;101114.00;;;-6.90
70050;BMP180;57391;51.306;22.680;2022-12-19T16:24:22;101105.80;;;-7.00
70050;BMP180;57391;51.306;22.680;2022-12-19T16:26:57;101118.60;;;-7.00
70050;BMP180;57391;51.306;22.680;2022-12-19T16:29:27;101119.40;;;-7.02